sensor_id;sensor_type;location;lat;lon;timestamp;temperature;humidity
78619;DHT22;67941;52.506;5.470;2023-12-04T00:00:23;2.70;78.90
78619;DHT22;67941;52.506;5.470;2023-12-04T00:02:52;2.70;78.80
78619;DHT22;67941;52.506;5.470;2023-12-04T00:05:21;2.70;78.80
78619;DHT22;67941;52.506;5.470;2023-12-04T00:07:50;2.70;78.90
78619;DHT22;67941;52.506;5.470;2023-12-04T00:10:19;2.70;79.00
78619;DHT22;67941;52.506;5.470;2023-12-04T00:12:47;2.70;79.00
78619;DHT22;67941;52.506;5.470;2023-12-04T00:15:19;2.80;79.00
78619;DHT22;67941;52.506;5.470;2023-12-04T00:17:49;2.80;78.90
78619;DHT22;67941;52.506;5.470;2023-12-04T00:20:17;2.80;78.90
78619;DHT22;67941;52.506;5.470;2023-12-04T00:22:46;2.80;78.90
78619;DHT22;67941;52.506;5.470;2023-12-04T00:25:15;2.80;78.90
78619;DHT22;67941;52.506;5.470;2023-12-04T00:27:44;2.80;78.90
78619;DHT22;67941;52.506;5.470;2023-12-04T00:30:13;2.80;78.90
78619;DHT22;67941;52.506;5.470;2023-12-04T00:32:44;2.90;78.90
78619;DHT22;67941;52.506;5.470;2023-12-04T00:35:13;2.90;79.00
78619;DHT22;67941;52.506;5.470;2023-12-04T00:37:42;2.90;78.90
78619;DHT22;67941;52.506;5.470;2023-12-04T00:40:11;2.90;78.90
78619;DHT22;67941;52.506;5.470;2023-12-04T00:42:40;2.90;78.90
78619;DHT22;67941;52.506;5.470;2023-12-04T00:45:09;2.90;79.00
78619;DHT22;67941;52.506;5.470;2023-12-04T00:47:38;2.90;78.90
78619;DHT22;67941;52.506;5.470;2023-12-04T00:50:11;2.90;79.00
78619;DHT22;67941;52.506;5.470;2023-12-04T00:52:39;3.00;79.00
78619;DHT22;67941;52.506;5.470;2023-12-04T00:55:08;3.00;78.90
78619;DHT22;67941;52.506;5.470;2023-12-04T00:57:37;3.00;78.90
78619;DHT22;67941;52.506;5.470;2023-12-04T01:00:07;3.00;78.80
78619;DHT22;67941;52.506;5.470;2023-12-04T01:02:36;3.00;78.90
78619;DHT22;67941;52.506;5.470;2023-12-04T01:05:08;3.00;78.80
78619;DHT22;67941;52.506;5.470;2023-12-04T01:07:37;3.00;78.70
78619;DHT22;67941;52.506;5.470;2023-12-04T01:10:07;3.00;78.70
78619;DHT22;67941;52.506;5.470;2023-12-04T01:12:36;3.00;78.60
78619;DHT22;67941;52.506;5.470;2023-12-04T01:15:06;2.90;78.70
78619;DHT22;67941;52.506;5.470;2023-12-04T01:17:35;2.90;78.70
78619;DHT22;67941;52.506;5.470;2023-12-04T01:20:05;2.90;78.70
78619;DHT22;67941;52.506;5.470;2023-12-04T01:22:37;2.90;78.70
78619;DHT22;67941;52.506;5.470;2023-12-04T01:25:07;2.90;78.70
78619;DHT22;67941;52.506;5.470;2023-12-04T01:27:36;2.90;78.80
78619;DHT22;67941;52.506;5.470;2023-12-04T01:30:07;2.90;78.90
78619;DHT22;67941;52.506;5.470;2023-12-04T01:32:36;2.90;78.90
78619;DHT22;67941;52.506;5.470;2023-12-04T01:35:06;2.90;78.70
78619;DHT22;67941;52.506;5.470;2023-12-04T01:37:38;2.90;78.70
78619;DHT22;67941;52.506;5.470;2023-12-04T01:40:08;2.90;78.80
78619;DHT22;67941;52.506;5.470;2023-12-04T01:42:37;2.90;78.80
78619;DHT22;67941;52.506;5.470;2023-12-04T01:45:07;2.90;78.80
78619;DHT22;67941;52.506;5.470;2023-12-04T01:47:36;3.00;78.80
78619;DHT22;67941;52.506;5.470;2023-12-04T01:50:07;3.00;78.80
78619;DHT22;67941;52.506;5.470;2023-12-04T01:52:39;3.00;78.70
78619;DHT22;67941;52.506;5.470;2023-12-04T01:55:09;3.00;78.80
78619;DHT22;67941;52.506;5.470;2023-12-04T01:57:39;3.00;78.80
78619;DHT22;67941;52.506;5.470;2023-12-04T02:00:09;3.00;78.70
78619;DHT22;67941;52.506;5.470;2023-12-04T02:02:38;3.00;78.70
78619;DHT22;67941;52.506;5.470;2023-12-04T02:05:08;3.00;78.70
78619;DHT22;67941;52.506;5.470;2023-12-04T02:07:40;3.00;78.70
78619;DHT22;67941;52.506;5.470;2023-12-04T02:10:10;3.00;78.70
78619;DHT22;67941;52.506;5.470;2023-12-04T02:12:39;3.00;78.70
78619;DHT22;67941;52.506;5.470;2023-12-04T02:15:08;3.00;78.80
78619;DHT22;67941;52.506;5.470;2023-12-04T02:17:37;3.00;78.70
78619;DHT22;67941;52.506;5.470;2023-12-04T02:20:08;3.00;78.70
78619;DHT22;67941;52.506;5.470;2023-12-04T02:22:41;2.90;78.70
78619;DHT22;67941;52.506;5.470;2023-12-04T02:25:12;2.90;78.70
78619;DHT22;67941;52.506;5.470;2023-12-04T02:27:44;3.00;78.70
78619;DHT22;67941;52.506;5.470;2023-12-04T02:30:18;3.00;78.70
78619;DHT22;67941;52.506;5.470;2023-12-04T02:32:48;3.00;78.70
78619;DHT22;67941;52.506;5.470;2023-12-04T02:35:20;2.90;78.70
78619;DHT22;67941;52.506;5.470;2023-12-04T02:37:50;2.90;78.70
78619;DHT22;67941;52.506;5.470;2023-12-04T02:40:22;2.90;78.70
78619;DHT22;67941;52.506;5.470;2023-12-04T02:42:51;2.90;78.70
78619;DHT22;67941;52.506;5.470;2023-12-04T02:45:20;2.90;78.70
78619;DHT22;67941;52.506;5.470;2023-12-04T02:47:49;2.90;78.80
78619;DHT22;67941;52.506;5.470;2023-12-04T02:50:18;2.90;78.80
78619;DHT22;67941;52.506;5.470;2023-12-04T02:52:47;2.90;78.90
78619;DHT22;67941;52.506;5.470;2023-12-04T02:55:16;2.90;78.90
78619;DHT22;67941;52.506;5.470;2023-12-04T02:57:47;3.00;78.80
78619;DHT22;67941;52.506;5.470;2023-12-04T03:00:17;3.00;78.90
78619;DHT22;67941;52.506;5.470;2023-12-04T03:02:46;3.00;78.80
78619;DHT22;67941;52.506;5.470;2023-12-04T03:05:13;3.00;78.70
78619;DHT22;67941;52.506;5.470;2023-12-04T03:07:42;3.00;78.70
78619;DHT22;67941;52.506;5.470;2023-12-04T03:10:11;3.00;78.70
78619;DHT22;67941;52.506;5.470;2023-12-04T03:12:40;3.00;78.70
78619;DHT22;67941;52.506;5.470;2023-12-04T03:15:12;3.00;78.70
78619;DHT22;67941;52.506;5.470;2023-12-04T03:17:41;3.00;78.60
78619;DHT22;67941;52.506;5.470;2023-12-04T03:20:11;2.90;78.70
78619;DHT22;67941;52.506;5.470;2023-12-04T03:22:39;2.90;78.60
78619;DHT22;67941;52.506;5.470;2023-12-04T03:25:08;2.90;78.60
78619;DHT22;67941;52.506;5.470;2023-12-04T03:27:37;2.90;78.60
78619;DHT22;67941;52.506;5.470;2023-12-04T03:30:07;2.90;78.60
78619;DHT22;67941;52.506;5.470;2023-12-04T03:32:39;2.90;78.70
78619;DHT22;67941;52.506;5.470;2023-12-04T03:35:08;2.90;78.60
78619;DHT22;67941;52.506;5.470;2023-12-04T03:37:36;2.90;78.60
78619;DHT22;67941;52.506;5.470;2023-12-04T03:40:06;2.90;78.60
78619;DHT22;67941;52.506;5.470;2023-12-04T03:42:36;2.90;78.60
78619;DHT22;67941;52.506;5.470;2023-12-04T03:45:06;2.90;78.60
78619;DHT22;67941;52.506;5.470;2023-12-04T03:47:37;2.90;78.60
78619;DHT22;67941;52.506;5.470;2023-12-04T03:50:07;2.90;78.60
78619;DHT22;67941;52.506;5.470;2023-12-04T03:52:36;2.90;78.60
78619;DHT22;67941;52.506;5.470;2023-12-04T03:55:06;2.90;78.60
78619;DHT22;67941;52.506;5.470;2023-12-04T03:57:35;2.90;78.60
78619;DHT22;67941;52.506;5.470;2023-12-04T04:00:05;2.90;78.50
78619;DHT22;67941;52.506;5.470;2023-12-04T04:02:43;2.90;78.60
78619;DHT22;67941;52.506;5.470;2023-12-04T04:05:12;3.00;78.50
78619;DHT22;67941;52.506;5.470;2023-12-04T04:07:41;2.90;78.50
78619;DHT22;67941;52.506;5.470;2023-12-04T04:10:10;2.90;78.40
78619;DHT22;67941;52.506;5.470;2023-12-04T04:12:39;2.90;78.40
78619;DHT22;67941;52.506;5.470;2023-12-04T04:15:08;2.90;78.50
78619;DHT22;67941;52.506;5.470;2023-12-04T04:17:40;2.90;78.50
78619;DHT22;67941;52.506;5.470;2023-12-04T04:20:09;2.90;78.50
78619;DHT22;67941;52.506;5.470;2023-12-04T04:22:38;2.90;78.50
78619;DHT22;67941;52.506;5.470;2023-12-04T04:25:08;2.90;78.50
78619;DHT22;67941;52.506;5.470;2023-12-04T04:27:37;2.90;78.40
78619;DHT22;67941;52.506;5.470;2023-12-04T04:30:06;2.90;78.50
78619;DHT22;67941;52.506;5.470;2023-12-04T04:32:36;2.90;78.50
78619;DHT22;67941;52.506;5.470;2023-12-04T04:35:08;2.90;78.40
78619;DHT22;67941;52.506;5.470;2023-12-04T04:37:37;2.90;78.30
78619;DHT22;67941;52.506;5.470;2023-12-04T04:40:07;2.80;78.30
78619;DHT22;67941;52.506;5.470;2023-12-04T04:42:36;2.80;78.30
78619;DHT22;67941;52.506;5.470;2023-12-04T04:45:06;2.80;78.20
78619;DHT22;67941;52.506;5.470;2023-12-04T04:47:35;2.70;78.20
78619;DHT22;67941;52.506;5.470;2023-12-04T04:50:07;2.70;78.30
78619;DHT22;67941;52.506;5.470;2023-12-04T04:52:54;2.60;78.20
78619;DHT22;67941;52.506;5.470;2023-12-04T04:55:23;2.50;78.30
78619;DHT22;67941;52.506;5.470;2023-12-04T04:57:52;2.50;78.30
78619;DHT22;67941;52.506;5.470;2023-12-04T05:00:21;2.50;78.30
78619;DHT22;67941;52.506;5.470;2023-12-04T05:02:50;2.50;78.30
78619;DHT22;67941;52.506;5.470;2023-12-04T05:05:21;2.50;78.30
78619;DHT22;67941;52.506;5.470;2023-12-04T05:07:50;2.50;78.30
78619;DHT22;67941;52.506;5.470;2023-12-04T05:10:19;2.40;78.30
78619;DHT22;67941;52.506;5.470;2023-12-04T05:12:48;2.40;78.30
78619;DHT22;67941;52.506;5.470;2023-12-04T05:15:16;2.30;78.30
78619;DHT22;67941;52.506;5.470;2023-12-04T05:17:45;2.30;78.40
78619;DHT22;67941;52.506;5.470;2023-12-04T05:20:14;2.30;78.50
78619;DHT22;67941;52.506;5.470;2023-12-04T05:22:46;2.30;78.50
78619;DHT22;67941;52.506;5.470;2023-12-04T05:25:15;2.30;78.50
78619;DHT22;67941;52.506;5.470;2023-12-04T05:27:44;2.30;78.50
78619;DHT22;67941;52.506;5.470;2023-12-04T05:30:13;2.20;78.50
78619;DHT22;67941;52.506;5.470;2023-12-04T05:32:42;2.20;78.50
78619;DHT22;67941;52.506;5.470;2023-12-04T05:35:11;2.20;78.60
78619;DHT22;67941;52.506;5.470;2023-12-04T05:37:39;2.20;78.40
78619;DHT22;67941;52.506;5.470;2023-12-04T05:40:11;2.20;78.40
78619;DHT22;67941;52.506;5.470;2023-12-04T05:42:40;2.20;78.50
78619;DHT22;67941;52.506;5.470;2023-12-04T05:45:09;2.20;78.50
78619;DHT22;67941;52.506;5.470;2023-12-04T05:47:38;2.20;78.50
78619;DHT22;67941;52.506;5.470;2023-12-04T05:50:08;2.20;78.50
78619;DHT22;67941;52.506;5.470;2023-12-04T05:52:37;2.20;78.50
78619;DHT22;67941;52.506;5.470;2023-12-04T05:55:07;2.30;78.50
78619;DHT22;67941;52.506;5.470;2023-12-04T05:57:39;2.30;78.60
78619;DHT22;67941;52.506;5.470;2023-12-04T06:00:09;2.30;78.50
78619;DHT22;67941;52.506;5.470;2023-12-04T06:02:39;2.30;78.50
78619;DHT22;67941;52.506;5.470;2023-12-04T06:05:08;2.30;78.50
78619;DHT22;67941;52.506;5.470;2023-12-04T06:07:37;2.30;78.60
78619;DHT22;67941;52.506;5.470;2023-12-04T06:10:07;2.40;78.50
78619;DHT22;67941;52.506;5.470;2023-12-04T06:12:39;2.40;78.50
78619;DHT22;67941;52.506;5.470;2023-12-04T06:15:09;2.40;78.50
78619;DHT22;67941;52.506;5.470;2023-12-04T06:17:38;2.40;78.60
78619;DHT22;67941;52.506;5.470;2023-12-04T06:20:09;2.40;78.50
78619;DHT22;67941;52.506;5.470;2023-12-04T06:22:38;2.50;78.50
78619;DHT22;67941;52.506;5.470;2023-12-04T06:25:09;2.50;78.50
78619;DHT22;67941;52.506;5.470;2023-12-04T06:27:41;2.50;78.50
78619;DHT22;67941;52.506;5.470;2023-12-04T06:30:11;2.50;78.40
78619;DHT22;67941;52.506;5.470;2023-12-04T06:32:41;2.50;78.50
78619;DHT22;67941;52.506;5.470;2023-12-04T06:35:11;2.50;78.50
78619;DHT22;67941;52.506;5.470;2023-12-04T06:37:41;2.50;78.50
78619;DHT22;67941;52.506;5.470;2023-12-04T06:40:12;2.50;78.50
78619;DHT22;67941;52.506;5.470;2023-12-04T06:42:44;2.60;78.50
78619;DHT22;67941;52.506;5.470;2023-12-04T06:45:14;2.60;78.50
78619;DHT22;67941;52.506;5.470;2023-12-04T06:47:43;2.60;78.50
78619;DHT22;67941;52.506;5.470;2023-12-04T06:50:14;2.60;78.50
78619;DHT22;67941;52.506;5.470;2023-12-04T06:52:43;2.60;78.50
78619;DHT22;67941;52.506;5.470;2023-12-04T06:55:12;2.60;78.50
78619;DHT22;67941;52.506;5.470;2023-12-04T06:57:44;2.70;78.40
78619;DHT22;67941;52.506;5.470;2023-12-04T07:00:14;2.70;78.50
78619;DHT22;67941;52.506;5.470;2023-12-04T07:02:43;2.70;78.50
78619;DHT22;67941;52.506;5.470;2023-12-04T07:05:11;2.70;78.50
78619;DHT22;67941;52.506;5.470;2023-12-04T07:07:40;2.70;78.40
78619;DHT22;67941;52.506;5.470;2023-12-04T07:10:09;2.70;78.50
78619;DHT22;67941;52.506;5.470;2023-12-04T07:12:40;2.80;78.40
78619;DHT22;67941;52.506;5.470;2023-12-04T07:15:13;2.80;78.40
78619;DHT22;67941;52.506;5.470;2023-12-04T07:17:43;2.80;78.40
78619;DHT22;67941;52.506;5.470;2023-12-04T07:20:11;2.80;78.30
78619;DHT22;67941;52.506;5.470;2023-12-04T07:22:40;2.80;78.30
78619;DHT22;67941;52.506;5.470;2023-12-04T07:25:09;2.80;78.30
78619;DHT22;67941;52.506;5.470;2023-12-04T07:27:38;2.80;78.20
78619;DHT22;67941;52.506;5.470;2023-12-04T07:30:08;2.70;78.20
78619;DHT22;67941;52.506;5.470;2023-12-04T07:32:39;2.70;78.10
78619;DHT22;67941;52.506;5.470;2023-12-04T07:35:08;2.70;78.10
78619;DHT22;67941;52.506;5.470;2023-12-04T07:37:37;2.60;78.10
78619;DHT22;67941;52.506;5.470;2023-12-04T07:40:08;2.60;78.10
78619;DHT22;67941;52.506;5.470;2023-12-04T07:42:37;2.50;78.20
78619;DHT22;67941;52.506;5.470;2023-12-04T07:45:07;2.50;78.20
78619;DHT22;67941;52.506;5.470;2023-12-04T07:47:38;2.50;78.20
78619;DHT22;67941;52.506;5.470;2023-12-04T07:50:08;2.50;78.20
78619;DHT22;67941;52.506;5.470;2023-12-04T07:52:37;2.50;78.20
78619;DHT22;67941;52.506;5.470;2023-12-04T07:55:06;2.50;78.30
78619;DHT22;67941;52.506;5.470;2023-12-04T07:57:35;2.50;78.30
78619;DHT22;67941;52.506;5.470;2023-12-04T08:00:06;2.50;78.30
78619;DHT22;67941;52.506;5.470;2023-12-04T08:02:35;2.50;78.40
78619;DHT22;67941;52.506;5.470;2023-12-04T08:05:06;2.50;78.30
78619;DHT22;67941;52.506;5.470;2023-12-04T08:07:35;2.50;78.40
78619;DHT22;67941;52.506;5.470;2023-12-04T08:10:05;2.60;78.30
78619;DHT22;67941;52.506;5.470;2023-12-04T08:12:35;2.60;78.40
78619;DHT22;67941;52.506;5.470;2023-12-04T08:15:05;2.70;78.30
78619;DHT22;67941;52.506;5.470;2023-12-04T08:17:34;2.70;78.40
78619;DHT22;67941;52.506;5.470;2023-12-04T08:20:07;2.70;78.40
78619;DHT22;67941;52.506;5.470;2023-12-04T08:22:39;2.80;78.40
78619;DHT22;67941;52.506;5.470;2023-12-04T08:25:09;2.80;78.40
78619;DHT22;67941;52.506;5.470;2023-12-04T08:27:38;2.80;78.40
78619;DHT22;67941;52.506;5.470;2023-12-04T08:30:08;2.90;78.40
78619;DHT22;67941;52.506;5.470;2023-12-04T08:32:36;2.90;78.30
78619;DHT22;67941;52.506;5.470;2023-12-04T08:35:08;3.00;78.30
78619;DHT22;67941;52.506;5.470;2023-12-04T08:37:37;3.00;78.30
78619;DHT22;67941;52.506;5.470;2023-12-04T08:40:07;3.00;78.30
78619;DHT22;67941;52.506;5.470;2023-12-04T08:42:37;3.10;78.30
78619;DHT22;67941;52.506;5.470;2023-12-04T08:45:08;3.10;78.40
78619;DHT22;67941;52.506;5.470;2023-12-04T08:47:37;3.10;78.40
78619;DHT22;67941;52.506;5.470;2023-12-04T08:50:09;3.20;78.40
78619;DHT22;67941;52.506;5.470;2023-12-04T08:52:38;3.30;78.30
78619;DHT22;67941;52.506;5.470;2023-12-04T08:55:09;3.30;78.30
78619;DHT22;67941;52.506;5.470;2023-12-04T08:57:38;3.40;78.30
78619;DHT22;67941;52.506;5.470;2023-12-04T09:00:09;3.50;78.30
78619;DHT22;67941;52.506;5.470;2023-12-04T09:02:38;3.50;78.20
78619;DHT22;67941;52.506;5.470;2023-12-04T09:05:09;3.50;78.20
78619;DHT22;67941;52.506;5.470;2023-12-04T09:07:38;3.60;78.20
78619;DHT22;67941;52.506;5.470;2023-12-04T09:10:07;3.60;78.10
78619;DHT22;67941;52.506;5.470;2023-12-04T09:12:36;3.70;78.10
78619;DHT22;67941;52.506;5.470;2023-12-04T09:15:06;3.70;78.10
78619;DHT22;67941;52.506;5.470;2023-12-04T09:17:37;3.70;78.00
78619;DHT22;67941;52.506;5.470;2023-12-04T09:20:09;3.70;77.90
78619;DHT22;67941;52.506;5.470;2023-12-04T09:22:38;3.70;77.80
78619;DHT22;67941;52.506;5.470;2023-12-04T09:25:07;3.70;77.70
78619;DHT22;67941;52.506;5.470;2023-12-04T09:27:37;3.70;77.70
78619;DHT22;67941;52.506;5.470;2023-12-04T09:30:07;3.70;77.60
78619;DHT22;67941;52.506;5.470;2023-12-04T09:32:36;3.60;77.50
78619;DHT22;67941;52.506;5.470;2023-12-04T09:35:09;3.50;77.50
78619;DHT22;67941;52.506;5.470;2023-12-04T09:37:38;3.50;77.50
78619;DHT22;67941;52.506;5.470;2023-12-04T09:40:08;3.50;77.60
78619;DHT22;67941;52.506;5.470;2023-12-04T09:42:39;3.50;77.60
78619;DHT22;67941;52.506;5.470;2023-12-04T09:45:09;3.40;77.70
78619;DHT22;67941;52.506;5.470;2023-12-04T09:47:38;3.40;77.70
78619;DHT22;67941;52.506;5.470;2023-12-04T09:50:10;3.30;77.70
78619;DHT22;67941;52.506;5.470;2023-12-04T09:52:39;3.30;77.70
78619;DHT22;67941;52.506;5.470;2023-12-04T09:55:08;3.30;77.70
78619;DHT22;67941;52.506;5.470;2023-12-04T09:57:38;3.30;77.70
78619;DHT22;67941;52.506;5.470;2023-12-04T10:00:08;3.30;77.60
78619;DHT22;67941;52.506;5.470;2023-12-04T10:02:39;3.40;77.70
78619;DHT22;67941;52.506;5.470;2023-12-04T10:05:11;3.40;77.60
78619;DHT22;67941;52.506;5.470;2023-12-04T10:07:40;3.40;77.70
78619;DHT22;67941;52.506;5.470;2023-12-04T10:10:09;3.50;77.70
78619;DHT22;67941;52.506;5.470;2023-12-04T10:12:38;3.50;77.70
78619;DHT22;67941;52.506;5.470;2023-12-04T10:15:10;3.50;77.70
78619;DHT22;67941;52.506;5.470;2023-12-04T10:17:41;3.60;77.70
78619;DHT22;67941;52.506;5.470;2023-12-04T10:20:14;3.70;77.70
78619;DHT22;67941;52.506;5.470;2023-12-04T10:22:54;3.80;77.80
78619;DHT22;67941;52.506;5.470;2023-12-04T10:25:25;3.90;77.80
78619;DHT22;67941;52.506;5.470;2023-12-04T10:27:55;3.90;77.70
78619;DHT22;67941;52.506;5.470;2023-12-04T10:30:35;4.00;77.80
78619;DHT22;67941;52.506;5.470;2023-12-04T10:33:05;4.10;77.70
78619;DHT22;67941;52.506;5.470;2023-12-04T10:35:37;4.20;77.70
78619;DHT22;67941;52.506;5.470;2023-12-04T10:38:07;4.30;77.60
78619;DHT22;67941;52.506;5.470;2023-12-04T10:40:37;4.30;77.60
78619;DHT22;67941;52.506;5.470;2023-12-04T10:43:16;4.40;77.60
78619;DHT22;67941;52.506;5.470;2023-12-04T10:45:46;4.50;77.50
78619;DHT22;67941;52.506;5.470;2023-12-04T10:48:17;4.50;77.60
78619;DHT22;67941;52.506;5.470;2023-12-04T10:50:49;4.60;77.50
78619;DHT22;67941;52.506;5.470;2023-12-04T10:53:19;4.70;77.50
78619;DHT22;67941;52.506;5.470;2023-12-04T10:55:49;4.70;77.50
78619;DHT22;67941;52.506;5.470;2023-12-04T10:58:20;4.80;77.40
78619;DHT22;67941;52.506;5.470;2023-12-04T11:00:55;4.90;77.40
78619;DHT22;67941;52.506;5.470;2023-12-04T11:03:32;5.00;77.30
78619;DHT22;67941;52.506;5.470;2023-12-04T11:06:08;5.00;77.30
78619;DHT22;67941;52.506;5.470;2023-12-04T11:08:39;5.00;77.30
78619;DHT22;67941;52.506;5.470;2023-12-04T11:11:15;5.00;77.20
78619;DHT22;67941;52.506;5.470;2023-12-04T11:13:50;5.10;77.20
78619;DHT22;67941;52.506;5.470;2023-12-04T11:16:24;5.10;77.20
78619;DHT22;67941;52.506;5.470;2023-12-04T11:19:00;5.20;77.10
78619;DHT22;67941;52.506;5.470;2023-12-04T11:21:32;5.20;77.10
78619;DHT22;67941;52.506;5.470;2023-12-04T11:24:04;5.30;77.10
78619;DHT22;67941;52.506;5.470;2023-12-04T11:26:34;5.30;77.10
78619;DHT22;67941;52.506;5.470;2023-12-04T11:29:04;5.30;76.90
78619;DHT22;67941;52.506;5.470;2023-12-04T11:31:35;5.30;76.90
78619;DHT22;67941;52.506;5.470;2023-12-04T11:34:06;5.20;76.90
78619;DHT22;67941;52.506;5.470;2023-12-04T11:36:40;5.20;77.00
78619;DHT22;67941;52.506;5.470;2023-12-04T11:39:10;5.20;77.00
78619;DHT22;67941;52.506;5.470;2023-12-04T11:41:40;5.30;76.90
78619;DHT22;67941;52.506;5.470;2023-12-04T11:44:12;5.30;76.90
78619;DHT22;67941;52.506;5.470;2023-12-04T11:46:55;5.30;76.80
78619;DHT22;67941;52.506;5.470;2023-12-04T11:49:28;5.30;76.80
78619;DHT22;67941;52.506;5.470;2023-12-04T11:52:12;5.30;76.90
78619;DHT22;67941;52.506;5.470;2023-12-04T11:55:03;5.30;76.90
78619;DHT22;67941;52.506;5.470;2023-12-04T11:57:34;5.30;76.90
78619;DHT22;67941;52.506;5.470;2023-12-04T12:00:11;5.40;76.90
78619;DHT22;67941;52.506;5.470;2023-12-04T12:02:41;5.40;76.90
78619;DHT22;67941;52.506;5.470;2023-12-04T12:05:15;5.50;76.70
78619;DHT22;67941;52.506;5.470;2023-12-04T12:07:47;5.50;76.70
78619;DHT22;67941;52.506;5.470;2023-12-04T12:10:16;5.50;76.60
78619;DHT22;67941;52.506;5.470;2023-12-04T12:12:45;5.50;76.50
78619;DHT22;67941;52.506;5.470;2023-12-04T12:15:14;5.50;76.30
78619;DHT22;67941;52.506;5.470;2023-12-04T12:17:43;5.40;76.20
78619;DHT22;67941;52.506;5.470;2023-12-04T12:20:14;5.30;76.20
78619;DHT22;67941;52.506;5.470;2023-12-04T12:22:48;5.30;76.20
78619;DHT22;67941;52.506;5.470;2023-12-04T12:25:17;5.20;76.10
78619;DHT22;67941;52.506;5.470;2023-12-04T12:27:48;5.10;76.20
78619;DHT22;67941;52.506;5.470;2023-12-04T12:30:17;5.00;76.20
78619;DHT22;67941;52.506;5.470;2023-12-04T12:32:46;5.00;76.20
78619;DHT22;67941;52.506;5.470;2023-12-04T12:35:15;5.00;76.10
78619;DHT22;67941;52.506;5.470;2023-12-04T12:37:47;5.00;76.10
78619;DHT22;67941;52.506;5.470;2023-12-04T12:40:20;4.90;76.20
78619;DHT22;67941;52.506;5.470;2023-12-04T12:42:49;4.90;76.20
78619;DHT22;67941;52.506;5.470;2023-12-04T12:45:18;4.90;76.20
78619;DHT22;67941;52.506;5.470;2023-12-04T12:47:47;4.80;76.10
78619;DHT22;67941;52.506;5.470;2023-12-04T12:50:17;4.80;76.20
78619;DHT22;67941;52.506;5.470;2023-12-04T12:52:49;4.70;76.10
78619;DHT22;67941;52.506;5.470;2023-12-04T12:55:22;4.70;76.00
78619;DHT22;67941;52.506;5.470;2023-12-04T12:57:52;4.70;76.10
78619;DHT22;67941;52.506;5.470;2023-12-04T13:00:24;4.70;76.00
78619;DHT22;67941;52.506;5.470;2023-12-04T13:02:53;4.70;76.10
78619;DHT22;67941;52.506;5.470;2023-12-04T13:05:22;4.70;76.10
78619;DHT22;67941;52.506;5.470;2023-12-04T13:07:53;4.70;76.00
78619;DHT22;67941;52.506;5.470;2023-12-04T13:10:22;4.80;76.00
78619;DHT22;67941;52.506;5.470;2023-12-04T13:12:51;4.80;75.90
78619;DHT22;67941;52.506;5.470;2023-12-04T13:15:22;4.90;75.80
78619;DHT22;67941;52.506;5.470;2023-12-04T13:17:51;4.80;75.80
78619;DHT22;67941;52.506;5.470;2023-12-04T13:20:20;4.90;75.80
78619;DHT22;67941;52.506;5.470;2023-12-04T13:22:49;4.90;75.90
78619;DHT22;67941;52.506;5.470;2023-12-04T13:25:21;4.90;75.80
78619;DHT22;67941;52.506;5.470;2023-12-04T13:27:50;4.90;75.80
78619;DHT22;67941;52.506;5.470;2023-12-04T13:30:19;4.90;75.70
78619;DHT22;67941;52.506;5.470;2023-12-04T13:32:48;4.90;75.70
78619;DHT22;67941;52.506;5.470;2023-12-04T13:35:17;4.90;75.70
78619;DHT22;67941;52.506;5.470;2023-12-04T13:37:47;4.90;75.70
78619;DHT22;67941;52.506;5.470;2023-12-04T13:40:23;4.90;75.70
78619;DHT22;67941;52.506;5.470;2023-12-04T13:42:54;4.80;75.60
78619;DHT22;67941;52.506;5.470;2023-12-04T13:45:35;4.70;75.60
78619;DHT22;67941;52.506;5.470;2023-12-04T13:48:04;4.70;75.50
78619;DHT22;67941;52.506;5.470;2023-12-04T13:50:38;4.70;75.60
78619;DHT22;67941;52.506;5.470;2023-12-04T13:53:06;4.70;75.60
78619;DHT22;67941;52.506;5.470;2023-12-04T13:55:38;4.70;75.70
78619;DHT22;67941;52.506;5.470;2023-12-04T13:58:22;4.60;75.70
78619;DHT22;67941;52.506;5.470;2023-12-04T14:01:08;4.70;75.70
78619;DHT22;67941;52.506;5.470;2023-12-04T14:03:48;4.60;75.60
78619;DHT22;67941;52.506;5.470;2023-12-04T14:06:17;4.60;75.70
78619;DHT22;67941;52.506;5.470;2023-12-04T14:08:46;4.60;75.70
78619;DHT22;67941;52.506;5.470;2023-12-04T14:11:17;4.70;75.60
78619;DHT22;67941;52.506;5.470;2023-12-04T14:13:46;4.70;75.50
78619;DHT22;67941;52.506;5.470;2023-12-04T14:16:15;4.70;75.50
78619;DHT22;67941;52.506;5.470;2023-12-04T14:18:44;4.70;75.50
78619;DHT22;67941;52.506;5.470;2023-12-04T14:21:14;4.70;75.50
78619;DHT22;67941;52.506;5.470;2023-12-04T14:23:43;4.70;75.50
78619;DHT22;67941;52.506;5.470;2023-12-04T14:26:11;4.70;75.40
78619;DHT22;67941;52.506;5.470;2023-12-04T14:28:43;4.70;75.40
78619;DHT22;67941;52.506;5.470;2023-12-04T14:31:12;4.60;75.50
78619;DHT22;67941;52.506;5.470;2023-12-04T14:33:41;4.60;75.50
78619;DHT22;67941;52.506;5.470;2023-12-04T14:36:10;4.60;75.50
78619;DHT22;67941;52.506;5.470;2023-12-04T14:38:40;4.60;75.50
78619;DHT22;67941;52.506;5.470;2023-12-04T14:41:09;4.50;75.50
78619;DHT22;67941;52.506;5.470;2023-12-04T14:43:38;4.50;75.40
78619;DHT22;67941;52.506;5.470;2023-12-04T14:46:11;4.50;75.50
78619;DHT22;67941;52.506;5.470;2023-12-04T14:48:40;4.50;75.50
78619;DHT22;67941;52.506;5.470;2023-12-04T14:51:09;4.50;75.40
78619;DHT22;67941;52.506;5.470;2023-12-04T14:53:39;4.50;75.40
78619;DHT22;67941;52.506;5.470;2023-12-04T14:56:19;4.50;75.50
78619;DHT22;67941;52.506;5.470;2023-12-04T14:59:12;4.50;75.50
78619;DHT22;67941;52.506;5.470;2023-12-04T15:02:11;4.50;75.50
78619;DHT22;67941;52.506;5.470;2023-12-04T15:05:07;4.50;75.40
78619;DHT22;67941;52.506;5.470;2023-12-04T15:07:48;4.50;75.40
78619;DHT22;67941;52.506;5.470;2023-12-04T15:10:42;4.50;75.40
78619;DHT22;67941;52.506;5.470;2023-12-04T15:13:23;4.50;75.40
78619;DHT22;67941;52.506;5.470;2023-12-04T15:16:11;4.40;75.30
78619;DHT22;67941;52.506;5.470;2023-12-04T15:18:55;4.40;75.20
78619;DHT22;67941;52.506;5.470;2023-12-04T15:21:48;4.40;75.20
78619;DHT22;67941;52.506;5.470;2023-12-04T15:24:18;4.30;75.10
78619;DHT22;67941;52.506;5.470;2023-12-04T15:26:45;4.20;75.00
78619;DHT22;67941;52.506;5.470;2023-12-04T15:29:14;4.10;74.90
78619;DHT22;67941;52.506;5.470;2023-12-04T15:31:44;4.00;75.00
78619;DHT22;67941;52.506;5.470;2023-12-04T15:34:16;3.90;74.90
78619;DHT22;67941;52.506;5.470;2023-12-04T15:36:44;3.70;74.90
78619;DHT22;67941;52.506;5.470;2023-12-04T15:39:12;3.60;74.90
78619;DHT22;67941;52.506;5.470;2023-12-04T15:41:42;3.50;75.00
78619;DHT22;67941;52.506;5.470;2023-12-04T15:44:11;3.40;75.00
78619;DHT22;67941;52.506;5.470;2023-12-04T15:46:37;3.30;75.00
78619;DHT22;67941;52.506;5.470;2023-12-04T15:49:06;3.20;75.00
78619;DHT22;67941;52.506;5.470;2023-12-04T15:51:35;3.10;75.10
78619;DHT22;67941;52.506;5.470;2023-12-04T15:54:04;3.10;75.20
78619;DHT22;67941;52.506;5.470;2023-12-04T15:56:32;3.00;75.20
78619;DHT22;67941;52.506;5.470;2023-12-04T15:59:01;2.90;75.20
78619;DHT22;67941;52.506;5.470;2023-12-04T16:01:28;2.90;75.20
78619;DHT22;67941;52.506;5.470;2023-12-04T16:03:56;2.80;75.20
78619;DHT22;67941;52.506;5.470;2023-12-04T16:06:25;2.70;75.20